Latest Weather Observations for Delamere

IDD60801

Issued at 6:05 pm CST Saturday 1 November 2014 (issued every 30 minutes, with the page automatically refreshed every 10 minutes)

About weather observations | Map of weather stations | Latest weather observations for NT | Other Formats
Station Details ID: 014949 Name: DELAMERE WEAPONS RANGE Lat: -15.74 Lon: 131.92 Height: 221.0 m
Data from the previous 72 hours. | See also: Recent months at Delamere
Date/Time
CST
Temp
°C
App
Temp
°C
Dew
Point
Rel
Hum
%
Delta-T
°C
Wind Press
QNH
hPa
Press
MSL
hPa
Rain
since 9 am
mm
Dir
 
Spd
km/h
Gust
km/h
Spd
kts
Gust
kts
01/06:00pm 38.9 35.8 10.3 18 17.1 E 17 22 9 12 1006.7 1004.9 0.0
01/05:30pm 39.8 36.9 11.0 18 17.4 ENE 17 22 9 12 1006.5 - 0.0
01/05:00pm 39.4 37.3 9.8 17 17.5 ESE 11 24 6 13 1006.4 - 0.0
01/04:30pm 40.1 37.8 10.4 17 17.8 ESE 13 20 7 11 1006.2 - 0.0
01/04:00pm 39.7 41.9 20.4 32 13.2 E 9 19 5 10 1006.3 - 0.0
01/03:30pm 39.7 40.9 19.9 31 13.4 E 13 20 7 11 1006.4 - 0.0
01/03:00pm 39.6 41.1 19.8 31 13.5 E 11 19 6 10 1006.8 1005.0 0.0
01/02:30pm 39.6 39.9 20.3 32 13.2 N 19 22 10 12 1007.3 - 0.0
01/02:00pm 38.9 38.9 17.1 28 14.3 E 13 24 7 13 1007.8 - 0.0
01/01:30pm 38.5 38.5 16.2 27 14.4 N 11 24 6 13 1008.3 - 0.0
01/01:00pm 38.7 37.6 13.2 22 15.8 NNE 11 22 6 12 1009.2 - 0.0
01/12:30pm 37.9 39.7 21.1 37 11.5 E 13 19 7 10 1009.8 - 0.0
01/12:00pm 37.4 36.6 15.2 26 14.1 E 13 22 7 12 1010.3 1008.5 0.0
01/11:30am 36.8 38.1 19.3 36 11.7 E 11 19 6 10 1010.9 - 0.0
01/11:00am 35.7 39.4 22.3 46 9.3 N 6 11 3 6 1011.3 - 0.0
01/10:30am 34.8 38.1 22.5 48 8.5 NNE 9 17 5 9 1011.7 - 0.0
01/10:00am 33.7 37.7 22.8 53 7.6 WNW 6 9 3 5 1011.9 - 0.0
01/09:30am 32.5 36.0 22.9 57 6.7 SW 9 13 5 7 1012.0 - 0.0
01/09:00am 31.3 34.9 23.1 61 5.7 WNW 9 19 5 10 1012.1 1010.3 0.0
01/08:30am 30.0 33.6 23.7 69 4.4 NW 11 17 6 9 1011.8 - 0.0
01/08:00am 28.6 32.1 23.5 74 3.5 NNW 11 15 6 8 1011.7 - 0.0
01/07:30am 27.8 31.1 23.2 76 3.2 NNW 11 17 6 9 1011.5 - 0.0
01/07:00am 26.8 29.9 22.2 76 3.1 NNW 9 11 5 6 1010.9 - 0.0
01/06:30am 26.0 29.1 21.4 76 3.1 N 7 11 4 6 1010.4 - 0.0
01/06:00am 24.9 27.5 18.3 66 4.2 NNE 2 6 1 3 1010.2 1008.4 0.0
01/05:30am 25.1 27.4 17.8 64 4.6 NE 2 9 1 5 1009.7 - 0.0
01/05:00am 25.3 27.8 17.2 61 5.1 CALM 0 0 0 0 1009.2 - 0.0
01/04:30am 25.3 27.4 16.2 57 5.6 CALM 0 0 0 0 1008.9 - 0.0
01/04:00am 25.8 28.0 16.4 56 5.8 CALM 0 0 0 0 1008.6 - 0.0
01/03:30am 26.1 28.0 15.8 53 6.3 CALM 0 0 0 0 1008.4 - 0.0
01/03:00am 26.2 28.2 15.9 53 6.4 CALM 0 0 0 0 1008.2 1006.5 0.0
01/02:30am 27.0 29.1 16.3 52 6.7 CALM 0 0 0 0 1008.3 - 0.0
01/02:00am 27.7 28.6 16.6 50 7.0 WNW 7 9 4 5 1008.0 - 0.0
01/01:30am 27.2 27.9 13.5 42 8.2 WNW 2 7 1 4 1008.1 - 0.0
01/01:00am 27.9 27.6 11.5 36 9.5 WNW 4 6 2 3 1008.4 - 0.0
01/12:30am 27.7 28.0 10.9 35 9.6 CALM 0 0 0 0 1008.4 - 0.0
01/12:00am 28.3 28.5 10.5 33 10.2 N 0 0 0 0 1008.5 1006.8 0.0
 
Date/Time
CST
Temp
°C
App
Temp
°C
Dew
Point
Rel
Hum
%
Delta-T
°C
Wind Press
QNH
hPa
Press
MSL
hPa
Rain
since 9 am
mm
Dir
 
Spd
km/h
Gust
km/h
Spd
kts
Gust
kts
31/11:30pm 29.1 29.5 11.2 33 10.4 CALM 0 0 0 0 1008.7 - 0.0
31/11:00pm 29.4 28.8 10.5 31 10.8 N 4 7 2 4 1008.8 - 0.0
31/10:30pm 30.6 29.8 11.1 30 11.4 NNE 6 7 3 4 1008.8 - 0.0
31/10:00pm 30.8 29.9 10.7 29 11.7 NNE 6 7 3 4 1008.6 - 0.0
31/09:30pm 32.3 31.1 10.4 26 12.7 N 7 7 4 4 1008.3 - 0.0
31/09:00pm 33.2 32.3 10.5 25 13.3 N 6 7 3 4 1008.0 1006.4 0.0
31/08:30pm 33.8 32.8 11.0 25 13.5 NNE 7 7 4 4 1007.7 - 0.0
31/08:00pm 34.7 33.8 10.5 23 14.2 NNE 6 7 3 4 1007.5 - 0.0
31/07:30pm 35.4 34.2 10.4 22 14.7 NNE 7 9 4 5 1007.1 - 0.0
31/07:00pm 36.4 35.3 10.6 21 15.3 N 7 9 4 5 1006.6 - 0.0
31/06:30pm 37.5 35.3 10.7 20 16.0 NE 13 19 7 10 1006.5 - 0.0
31/06:00pm 38.4 35.4 10.7 19 16.6 NNE 17 22 9 12 1006.1 1004.5 0.0
31/05:30pm 37.9 36.4 11.8 21 15.8 N 11 15 6 8 1005.8 - 0.0
31/05:00pm 38.3 37.1 12.8 22 15.7 NNE 11 15 6 8 1006.0 - 0.0
31/04:30pm 38.4 37.0 12.2 21 16.0 NNE 11 20 6 11 1006.0 - 0.0
31/04:00pm 38.8 36.4 12.5 21 16.2 NNE 17 26 9 14 1006.0 - 0.0
31/03:30pm 38.3 36.2 13.5 23 15.4 N 17 26 9 14 1006.3 - 0.0
31/03:00pm 38.8 37.2 13.9 22 15.6 NNW 15 26 8 14 1006.6 1005.0 0.0
31/02:30pm 39.0 36.5 13.4 22 15.9 N 19 28 10 15 1006.8 - 0.0
31/02:00pm 38.7 36.5 14.5 24 15.3 N 19 30 10 16 1007.3 - 0.0
31/01:30pm 37.6 36.7 14.8 25 14.4 NNW 13 24 7 13 1007.8 - 0.0
31/01:00pm 37.0 35.7 14.9 27 13.9 N 15 26 8 14 1008.5 - 0.0
31/12:30pm 36.5 35.1 14.5 27 13.8 N 15 30 8 16 1009.0 - 0.0
31/12:00pm 35.3 34.1 16.1 32 12.3 NW 17 30 9 16 1009.8 1008.2 0.0
31/11:30am 35.7 35.2 16.9 32 12.1 NNW 15 26 8 14 1010.3 - 0.0
31/11:00am 34.2 33.4 17.0 36 11.1 NNW 17 32 9 17 1010.8 - 0.0
31/10:30am 33.5 32.7 17.2 37 10.5 NNW 17 24 9 13 1011.1 - 0.0
31/10:00am 32.7 32.2 17.7 40 9.7 NNW 17 24 9 13 1011.5 - 0.0
31/09:30am 31.9 30.8 17.8 43 9.1 NNW 20 30 11 16 1011.6 - 0.0
31/09:00am 31.1 30.3 18.1 46 8.4 NNW 19 26 10 14 1011.6 1010.0 0.0
31/08:30am 29.9 29.4 18.7 51 7.3 NNW 19 26 10 14 1011.4 - 0.0
31/08:00am 29.0 28.6 19.0 54 6.5 NW 19 26 10 14 1011.2 - 0.0
31/07:30am 28.2 28.9 19.7 60 5.6 NW 15 20 8 11 1011.0 - 0.0
31/07:00am 27.4 29.3 19.7 63 5.0 NW 9 13 5 7 1010.5 - 0.0
31/06:30am 26.7 28.9 19.3 64 4.8 WNW 6 7 3 4 1009.9 - 0.0
31/06:00am 26.7 28.4 19.3 64 4.8 W 9 13 5 7 1009.3 1007.8 0.0
31/05:30am 27.1 28.8 19.4 62 5.0 NW 9 13 5 7 1008.9 - 0.0
31/05:00am 27.4 28.8 19.5 62 5.2 NW 11 15 6 8 1008.5 - 0.0
31/04:30am 27.7 28.7 19.5 61 5.4 NW 13 17 7 9 1008.3 - 0.0
31/04:00am 27.9 28.6 18.9 58 5.8 NW 13 17 7 9 1008.1 - 0.0
31/03:30am 28.0 28.8 18.1 55 6.4 NNW 11 17 6 9 1007.9 - 0.0
31/03:00am 28.7 29.4 18.8 55 6.4 N 13 19 7 10 1007.7 1006.1 0.0
31/02:30am 28.8 29.0 17.7 51 7.1 NNW 13 19 7 10 1007.7 - 0.0
31/02:00am 29.3 27.4 14.3 40 9.1 NNW 17 24 9 13 1007.8 - 0.0
31/01:30am 30.3 26.5 9.2 27 11.9 N 19 24 10 13 1007.8 - 0.0
31/01:00am 30.3 27.5 8.7 26 12.1 NNE 13 19 7 10 1007.7 - 0.0
31/12:30am 29.9 28.0 8.9 27 11.8 NE 9 15 5 8 1007.8 - 0.0
31/12:00am 29.8 28.1 8.2 26 12.0 NE 7 9 4 5 1007.9 1006.3 0.0
 
Date/Time
CST
Temp
°C
App
Temp
°C
Dew
Point
Rel
Hum
%
Delta-T
°C
Wind Press
QNH
hPa
Press
MSL
hPa
Rain
since 9 am
mm
Dir
 
Spd
km/h
Gust
km/h
Spd
kts
Gust
kts
30/11:30pm 31.3 29.2 8.3 24 12.8 NNE 9 13 5 7 1008.1 - 0.0
30/11:00pm 31.8 29.8 8.7 24 13.0 NNE 9 13 5 7 1008.3 - 0.0
30/10:30pm 31.7 30.1 8.7 24 13.0 NNE 7 9 4 5 1008.4 - 0.0
30/10:00pm 31.1 29.4 8.2 24 12.8 NE 7 9 4 5 1008.4 - 0.0
30/09:30pm 32.0 30.5 8.3 23 13.3 NE 6 7 3 4 1008.1 - 0.0
30/09:00pm 33.0 31.4 7.8 21 14.1 NE 6 7 3 4 1007.8 1006.2 0.0
30/08:30pm 34.1 31.9 8.0 20 14.7 NE 9 11 5 6 1007.7 - 0.0
30/08:00pm 34.9 32.7 7.9 19 15.2 NE 9 11 5 6 1007.4 - 0.0
30/07:30pm 35.9 34.1 7.9 18 15.9 NE 7 9 4 5 1007.2 - 0.0
30/07:00pm 37.2 34.8 7.2 16 16.9 ENE 9 11 5 6 1006.9 - 0.0
30/06:30pm 38.3 36.4 10.6 19 16.5 ENE 11 15 6 8 1006.6 - 0.0
30/06:00pm 39.0 36.9 11.2 19 16.8 ENE 13 19 7 10 1006.2 1004.6 0.0
30/05:30pm 39.4 36.6 11.5 19 16.9 ENE 17 24 9 13 1006.0 - 0.0
30/05:00pm 39.8 37.5 11.8 19 17.1 E 15 20 8 11 1006.1 - 0.0
30/04:30pm 40.0 36.4 12.0 19 17.1 NE 22 30 12 16 1005.9 - 0.0
30/04:00pm 39.2 37.8 12.1 20 16.6 ENE 11 20 6 11 1006.1 - 0.0
30/03:30pm 41.4 38.6 11.4 17 18.3 ESE 17 30 9 16 1006.3 - 0.0
30/03:00pm 40.1 37.9 9.5 16 18.1 E 11 20 6 11 1006.7 1005.1 0.0
30/02:30pm 39.3 35.7 10.6 18 17.2 N 20 37 11 20 1006.9 - 0.0
30/02:00pm 39.2 37.1 11.3 19 16.9 ENE 13 28 7 15 1007.4 - 0.0
30/01:30pm 37.9 36.6 12.5 22 15.5 N 11 26 6 14 1007.9 - 0.0
30/01:00pm 38.7 36.9 13.2 22 15.8 ENE 15 24 8 13 1008.6 - 0.0
30/12:30pm 37.9 35.5 13.8 23 15.0 NE 19 24 10 13 1009.3 - 0.0
30/12:00pm 36.8 35.5 14.7 26 13.9 NNW 15 24 8 13 1009.9 1008.3 0.0
30/11:30am 36.5 34.5 15.0 27 13.6 NE 19 26 10 14 1010.4 - 0.0
30/11:00am 36.0 34.5 15.2 29 13.1 N 17 24 9 13 1010.8 - 0.0
30/10:30am 34.2 33.2 16.5 34 11.3 N 17 30 9 16 1011.2 - 0.0
30/10:00am 33.6 32.9 17.3 37 10.5 N 17 28 9 15 1011.6 - 0.0
30/09:30am 32.2 32.5 18.8 45 8.8 NNW 15 22 8 12 1011.9 - 0.0
30/09:00am 31.1 31.7 19.4 49 7.7 NW 15 26 8 14 1012.1 1010.5 0.0
30/08:30am 30.3 30.6 20.5 55 6.5 NNW 19 26 10 14 1011.9 - 0.0
30/08:00am 29.0 29.4 19.9 58 6.0 NW 17 22 9 12 1011.6 - 0.0
30/07:30am 27.5 29.0 21.3 69 4.2 NNW 15 20 8 11 1011.3 - 0.0
30/07:00am 26.6 29.0 21.6 74 3.4 NNW 11 19 6 10 1010.9 - 0.0
30/06:30am 26.2 28.7 21.8 77 3.0 NNW 11 15 6 8 1010.6 - 0.0
30/06:00am 26.3 28.8 21.7 76 3.1 NNW 11 15 6 8 1010.4 1008.8 0.0
30/05:30am 26.5 29.1 21.9 76 3.1 NNW 11 15 6 8 1010.2 - 0.0
30/05:00am 26.5 28.8 21.3 73 3.5 NNW 11 17 6 9 1009.9 - 0.0
30/04:30am 26.7 28.2 19.8 66 4.5 N 11 17 6 9 1009.7 - 0.0
30/04:00am 27.2 28.3 18.8 60 5.4 N 11 17 6 9 1009.5 - 0.0
30/03:30am 27.7 27.8 18.4 57 6.0 N 15 20 8 11 1009.3 - 0.0
30/03:00am 28.5 28.5 18.0 53 6.7 N 15 24 8 13 1009.3 1007.8 0.0
30/02:30am 29.2 26.3 9.8 30 11.0 NNE 15 19 8 10 1009.4 - 0.0
30/02:00am 29.9 27.5 9.9 29 11.4 ENE 13 17 7 9 1009.2 - 0.0
30/01:30am 29.8 28.1 9.9 29 11.3 SE 9 13 5 7 1009.7 - 0.0
30/01:00am 30.2 28.1 9.7 28 11.7 SE 11 15 6 8 1009.8 - 0.0
30/12:30am 30.4 28.7 9.8 28 11.7 ENE 9 13 5 7 1009.8 - 0.0
30/12:00am 31.1 29.0 9.9 27 12.2 NE 11 17 6 9 1010.1 1008.5 0.0
 
Date/Time
CST
Temp
°C
App
Temp
°C
Dew
Point
Rel
Hum
%
Delta-T
°C
Wind Press
QNH
hPa
Press
MSL
hPa
Rain
since 9 am
mm
Dir
 
Spd
km/h
Gust
km/h
Spd
kts
Gust
kts
29/11:30pm 30.5 29.3 9.4 27 12.0 NNE 6 7 3 4 1010.1 - 0.0
29/11:00pm 30.4 29.1 9.3 27 11.9 NNE 6 7 3 4 1010.2 - 0.0
29/10:30pm 30.8 29.6 9.6 27 12.1 NE 6 7 3 4 1010.2 - 0.0
29/10:00pm 31.0 29.7 9.3 26 12.3 ENE 6 7 3 4 1010.2 - 0.0
29/09:30pm 31.4 30.0 9.0 25 12.7 ENE 6 7 3 4 1010.0 - 0.0
29/09:00pm 32.3 32.1 9.2 24 13.2 CALM 0 0 0 0 1009.8 1008.2 0.0
29/08:30pm 33.3 32.4 9.4 23 13.7 ENE 4 6 2 3 1009.7 - 0.0
29/08:00pm 34.4 33.0 8.9 21 14.6 ENE 6 7 3 4 1009.4 - 0.0
29/07:30pm 35.7 34.2 9.3 20 15.3 E 7 9 4 5 1009.1 - 0.0
29/07:00pm 36.9 34.9 8.7 18 16.3 ENE 9 13 5 7 1008.8 - 0.0
29/06:30pm 37.6 35.1 8.4 17 16.8 E 11 17 6 9 1008.5 - 0.0

Other Formats:

Comma delimited format used in spreadsheet applications
http://www.bom.gov.au/fwo/IDD60801/IDD60801.94225.axf

JavaScript Object Notation format (JSON) in row-major order
http://www.bom.gov.au/fwo/IDD60801/IDD60801.94225.json